sensor_id;sensor_type;location;lat;lon;timestamp;pressure;altitude;pressure_sealevel;temperature;humidity
2188;BME280;1100;52.014;8.540;2022-10-31T00:00:16;100631.63;;;12.35;78.39
2188;BME280;1100;52.014;8.540;2022-10-31T00:02:42;100635.50;;;12.37;78.53
2188;BME280;1100;52.014;8.540;2022-10-31T00:05:07;100633.53;;;12.38;78.61
2188;BME280;1100;52.014;8.540;2022-10-31T00:07:33;100634.63;;;12.40;78.57
2188;BME280;1100;52.014;8.540;2022-10-31T00:09:58;100644.13;;;12.43;78.66
2188;BME280;1100;52.014;8.540;2022-10-31T00:12:23;100638.66;;;12.39;78.66
2188;BME280;1100;52.014;8.540;2022-10-31T00:14:49;100640.66;;;12.39;78.60
2188;BME280;1100;52.014;8.540;2022-10-31T00:17:14;100649.09;;;12.35;78.60
2188;BME280;1100;52.014;8.540;2022-10-31T00:19:39;100645.19;;;12.32;78.54
2188;BME280;1100;52.014;8.540;2022-10-31T00:22:04;100643.28;;;12.29;78.70
2188;BME280;1100;52.014;8.540;2022-10-31T00:24:30;100642.94;;;12.27;78.73
2188;BME280;1100;52.014;8.540;2022-10-31T00:26:55;100653.75;;;12.25;78.70
2188;BME280;1100;52.014;8.540;2022-10-31T00:29:20;100651.84;;;12.22;78.72
2188;BME280;1100;52.014;8.540;2022-10-31T00:31:45;100657.50;;;12.18;78.52
2188;BME280;1100;52.014;8.540;2022-10-31T00:34:11;100652.34;;;12.17;79.04
2188;BME280;1100;52.014;8.540;2022-10-31T00:36:36;100657.56;;;12.15;78.98
2188;BME280;1100;52.014;8.540;2022-10-31T00:39:01;100656.00;;;12.14;79.03
2188;BME280;1100;52.014;8.540;2022-10-31T00:41:27;100662.03;;;12.12;79.04
2188;BME280;1100;52.014;8.540;2022-10-31T00:43:52;100648.88;;;12.13;79.24
2188;BME280;1100;52.014;8.540;2022-10-31T00:46:17;100655.22;;;12.13;79.10
2188;BME280;1100;52.014;8.540;2022-10-31T00:48:43;100646.97;;;12.10;79.15
2188;BME280;1100;52.014;8.540;2022-10-31T00:51:08;100648.56;;;12.07;79.37
2188;BME280;1100;52.014;8.540;2022-10-31T00:53:34;100648.56;;;12.07;79.66
2188;BME280;1100;52.014;8.540;2022-10-31T00:55:59;100647.47;;;12.04;79.02
2188;BME280;1100;52.014;8.540;2022-10-31T00:58:25;100650.69;;;12.03;79.54
2188;BME280;1100;52.014;8.540;2022-10-31T01:00:50;100661.03;;;12.02;79.40
2188;BME280;1100;52.014;8.540;2022-10-31T01:03:23;100650.41;;;11.97;79.31
2188;BME280;1100;52.014;8.540;2022-10-31T01:06:03;100657.19;;;11.96;79.35
2188;BME280;1100;52.014;8.540;2022-10-31T01:08:29;100658.06;;;11.93;79.24
2188;BME280;1100;52.014;8.540;2022-10-31T01:11:15;100658.94;;;11.90;79.43
2188;BME280;1100;52.014;8.540;2022-10-31T01:13:41;100663.72;;;11.89;79.51
2188;BME280;1100;52.014;8.540;2022-10-31T01:16:09;100665.81;;;11.85;79.82
2188;BME280;1100;52.014;8.540;2022-10-31T01:18:35;100661.03;;;11.86;79.68
2188;BME280;1100;52.014;8.540;2022-10-31T01:21:06;100669.81;;;11.84;79.71
2188;BME280;1100;52.014;8.540;2022-10-31T01:23:32;100675.03;;;11.82;79.72
2188;BME280;1100;52.014;8.540;2022-10-31T01:31:10;100673.06;;;11.82;79.77
2188;BME280;1100;52.014;8.540;2022-10-31T01:33:36;100667.97;;;11.77;79.72
2188;BME280;1100;52.014;8.540;2022-10-31T01:36:15;100669.34;;;11.69;79.47
2188;BME280;1100;52.014;8.540;2022-10-31T01:38:41;100669.59;;;11.58;79.46
2188;BME280;1100;52.014;8.540;2022-10-31T01:41:06;100670.56;;;11.51;79.49
2188;BME280;1100;52.014;8.540;2022-10-31T01:43:53;100670.38;;;11.42;79.64
2188;BME280;1100;52.014;8.540;2022-10-31T01:46:22;100669.22;;;11.39;79.65
2188;BME280;1100;52.014;8.540;2022-10-31T01:48:49;100662.44;;;11.40;79.74
2188;BME280;1100;52.014;8.540;2022-10-31T01:51:17;100666.44;;;11.39;79.62
2188;BME280;1100;52.014;8.540;2022-10-31T01:53:45;100660.97;;;11.36;79.69
2188;BME280;1100;52.014;8.540;2022-10-31T01:56:13;100657.44;;;11.31;79.61
2188;BME280;1100;52.014;8.540;2022-10-31T01:58:39;100644.81;;;11.27;79.73
2188;BME280;1100;52.014;8.540;2022-10-31T02:01:05;100644.56;;;11.21;79.55
2188;BME280;1100;52.014;8.540;2022-10-31T02:03:30;100650.19;;;11.17;79.62
2188;BME280;1100;52.014;8.540;2022-10-31T02:05:57;100655.00;;;11.17;79.76
2188;BME280;1100;52.014;8.540;2022-10-31T02:08:27;100646.22;;;11.18;79.98
2188;BME280;1100;52.014;8.540;2022-10-31T02:10:53;100654.19;;;11.16;79.74
2188;BME280;1100;52.014;8.540;2022-10-31T02:13:19;100652.63;;;11.15;79.83
2188;BME280;1100;52.014;8.540;2022-10-31T02:15:49;100660.19;;;11.15;79.96
2188;BME280;1100;52.014;8.540;2022-10-31T02:18:15;100667.69;;;11.18;79.99
2188;BME280;1100;52.014;8.540;2022-10-31T02:31:52;100661.84;;;10.92;79.72
2188;BME280;1100;52.014;8.540;2022-10-31T02:34:42;100666.69;;;10.88;79.63
2188;BME280;1100;52.014;8.540;2022-10-31T02:43:02;100652.00;;;10.87;80.04
2188;BME280;1100;52.014;8.540;2022-10-31T02:45:35;100658.63;;;10.93;79.97
2188;BME280;1100;52.014;8.540;2022-10-31T02:48:10;100657.00;;;10.96;79.94
2188;BME280;1100;52.014;8.540;2022-10-31T02:50:41;100661.00;;;10.95;79.74
2188;BME280;1100;52.014;8.540;2022-10-31T02:53:07;100671.38;;;10.91;79.83
2188;BME280;1100;52.014;8.540;2022-10-31T02:58:08;100687.31;;;10.90;80.08
2188;BME280;1100;52.014;8.540;2022-10-31T03:00:46;100695.13;;;10.95;80.13
2188;BME280;1100;52.014;8.540;2022-10-31T03:03:33;100695.06;;;10.99;80.11
2188;BME280;1100;52.014;8.540;2022-10-31T03:06:22;100687.81;;;11.05;80.20
2188;BME280;1100;52.014;8.540;2022-10-31T03:11:24;100684.00;;;11.16;80.32
2188;BME280;1100;52.014;8.540;2022-10-31T03:14:10;100686.50;;;11.30;80.61
2188;BME280;1100;52.014;8.540;2022-10-31T03:16:46;100693.34;;;11.46;80.84
2188;BME280;1100;52.014;8.540;2022-10-31T03:19:16;100694.59;;;11.62;80.87
2188;BME280;1100;52.014;8.540;2022-10-31T03:21:46;100692.63;;;11.79;81.06
2188;BME280;1100;52.014;8.540;2022-10-31T03:24:13;100682.78;;;11.91;81.15
2188;BME280;1100;52.014;8.540;2022-10-31T03:26:52;100684.19;;;11.99;80.90
2188;BME280;1100;52.014;8.540;2022-10-31T03:29:22;100682.41;;;12.09;80.79
2188;BME280;1100;52.014;8.540;2022-10-31T03:31:54;100679.97;;;12.11;80.75
2188;BME280;1100;52.014;8.540;2022-10-31T03:34:22;100685.44;;;12.15;80.79
2188;BME280;1100;52.014;8.540;2022-10-31T03:36:50;100673.16;;;12.12;80.47
2188;BME280;1100;52.014;8.540;2022-10-31T03:39:18;100680.06;;;12.07;80.24
2188;BME280;1100;52.014;8.540;2022-10-31T03:41:49;100671.13;;;11.96;80.29
2188;BME280;1100;52.014;8.540;2022-10-31T03:44:20;100674.16;;;11.85;80.17
2188;BME280;1100;52.014;8.540;2022-10-31T03:46:46;100680.78;;;11.75;80.17
2188;BME280;1100;52.014;8.540;2022-10-31T03:49:12;100667.97;;;11.61;80.12
2188;BME280;1100;52.014;8.540;2022-10-31T03:51:45;100677.00;;;11.48;79.99
2188;BME280;1100;52.014;8.540;2022-10-31T03:54:37;100671.38;;;11.31;79.97
2188;BME280;1100;52.014;8.540;2022-10-31T03:57:13;100682.28;;;11.22;80.10
2188;BME280;1100;52.014;8.540;2022-10-31T03:59:44;100686.09;;;11.12;79.90
2188;BME280;1100;52.014;8.540;2022-10-31T04:02:15;100683.09;;;11.02;80.19
2188;BME280;1100;52.014;8.540;2022-10-31T04:04:42;100688.81;;;10.95;79.94
2188;BME280;1100;52.014;8.540;2022-10-31T04:07:10;100692.50;;;10.88;80.22
2188;BME280;1100;52.014;8.540;2022-10-31T04:09:37;100700.19;;;10.80;80.08
2188;BME280;1100;52.014;8.540;2022-10-31T04:12:07;100698.75;;;10.72;80.03
2188;BME280;1100;52.014;8.540;2022-10-31T04:14:38;100692.53;;;10.64;80.15
2188;BME280;1100;52.014;8.540;2022-10-31T04:17:07;100693.44;;;10.57;80.20
2188;BME280;1100;52.014;8.540;2022-10-31T04:19:34;100693.16;;;10.52;80.18
2188;BME280;1100;52.014;8.540;2022-10-31T04:22:00;100693.56;;;10.50;80.16
2188;BME280;1100;52.014;8.540;2022-10-31T04:24:25;100693.63;;;10.46;80.25
2188;BME280;1100;52.014;8.540;2022-10-31T04:26:51;100700.81;;;10.44;80.31
2188;BME280;1100;52.014;8.540;2022-10-31T04:29:16;100692.19;;;10.38;80.26
2188;BME280;1100;52.014;8.540;2022-10-31T04:31:42;100690.25;;;10.35;80.33
2188;BME280;1100;52.014;8.540;2022-10-31T04:34:07;100692.22;;;10.34;80.40
2188;BME280;1100;52.014;8.540;2022-10-31T04:36:32;100698.63;;;10.31;80.29
2188;BME280;1100;52.014;8.540;2022-10-31T04:38:58;100701.84;;;10.30;80.37
2188;BME280;1100;52.014;8.540;2022-10-31T04:41:23;100697.53;;;10.25;80.33
2188;BME280;1100;52.014;8.540;2022-10-31T04:43:51;100688.47;;;10.21;80.37
2188;BME280;1100;52.014;8.540;2022-10-31T04:46:16;100686.84;;;10.24;80.50
2188;BME280;1100;52.014;8.540;2022-10-31T04:48:41;100696.41;;;10.22;80.56
2188;BME280;1100;52.014;8.540;2022-10-31T04:51:07;100689.25;;;10.21;80.44
2188;BME280;1100;52.014;8.540;2022-10-31T04:53:32;100687.69;;;10.20;80.56
2188;BME280;1100;52.014;8.540;2022-10-31T04:55:58;100686.56;;;10.18;80.51
2188;BME280;1100;52.014;8.540;2022-10-31T04:58:25;100685.81;;;10.14;80.68
2188;BME280;1100;52.014;8.540;2022-10-31T05:00:52;100685.47;;;10.12;80.65
2188;BME280;1100;52.014;8.540;2022-10-31T05:03:18;100677.91;;;10.12;80.72
2188;BME280;1100;52.014;8.540;2022-10-31T05:05:43;100681.50;;;10.09;80.80
2188;BME280;1100;52.014;8.540;2022-10-31T05:08:09;100672.03;;;10.06;80.77
2188;BME280;1100;52.014;8.540;2022-10-31T05:10:35;100674.44;;;10.04;80.73
2188;BME280;1100;52.014;8.540;2022-10-31T05:13:04;100673.69;;;10.04;80.88
2188;BME280;1100;52.014;8.540;2022-10-31T05:15:30;100671.31;;;10.02;80.70
2188;BME280;1100;52.014;8.540;2022-10-31T05:17:56;100668.97;;;10.01;80.83
2188;BME280;1100;52.014;8.540;2022-10-31T05:20:25;100658.75;;;9.94;80.72
2188;BME280;1100;52.014;8.540;2022-10-31T05:22:53;100667.44;;;9.96;80.79
2188;BME280;1100;52.014;8.540;2022-10-31T05:25:20;100667.44;;;9.96;80.68
2188;BME280;1100;52.014;8.540;2022-10-31T05:27:48;100655.59;;;9.92;80.80
2188;BME280;1100;52.014;8.540;2022-10-31T05:30:19;100658.31;;;9.95;80.97
2188;BME280;1100;52.014;8.540;2022-10-31T05:32:48;100655.56;;;9.95;80.77
2188;BME280;1100;52.014;8.540;2022-10-31T05:35:18;100666.69;;;9.92;80.71
2188;BME280;1100;52.014;8.540;2022-10-31T05:37:44;100656.50;;;9.85;80.68
2188;BME280;1100;52.014;8.540;2022-10-31T05:40:12;100666.88;;;9.81;80.78
2188;BME280;1100;52.014;8.540;2022-10-31T05:42:39;100668.50;;;9.78;80.92
2188;BME280;1100;52.014;8.540;2022-10-31T05:45:06;100657.03;;;9.76;80.98
2188;BME280;1100;52.014;8.540;2022-10-31T05:47:31;100658.25;;;9.75;80.99
2188;BME280;1100;52.014;8.540;2022-10-31T05:49:57;100664.59;;;9.76;80.96
2188;BME280;1100;52.014;8.540;2022-10-31T05:52:22;100666.19;;;9.73;80.95
2188;BME280;1100;52.014;8.540;2022-10-31T05:54:47;100665.44;;;9.72;81.04
2188;BME280;1100;52.014;8.540;2022-10-31T05:57:12;100666.59;;;9.71;80.94
2188;BME280;1100;52.014;8.540;2022-10-31T05:59:38;100657.19;;;9.65;80.75
2188;BME280;1100;52.014;8.540;2022-10-31T06:02:03;100662.38;;;9.63;81.02
2188;BME280;1100;52.014;8.540;2022-10-31T06:04:28;100660.03;;;9.62;80.98
2188;BME280;1100;52.014;8.540;2022-10-31T06:06:54;100667.56;;;9.61;80.98
2188;BME280;1100;52.014;8.540;2022-10-31T06:09:19;100668.81;;;9.56;80.97
2188;BME280;1100;52.014;8.540;2022-10-31T06:11:44;100673.56;;;9.56;81.25
2188;BME280;1100;52.014;8.540;2022-10-31T06:14:09;100664.47;;;9.55;81.18
2188;BME280;1100;52.014;8.540;2022-10-31T06:16:35;100674.31;;;9.60;81.25
2188;BME280;1100;52.014;8.540;2022-10-31T06:19:00;100673.53;;;9.59;81.09
2188;BME280;1100;52.014;8.540;2022-10-31T06:21:25;100682.69;;;9.56;80.85
2188;BME280;1100;52.014;8.540;2022-10-31T06:23:51;100685.09;;;9.54;81.09
2188;BME280;1100;52.014;8.540;2022-10-31T06:26:16;100686.72;;;9.52;81.06
2188;BME280;1100;52.014;8.540;2022-10-31T06:28:42;100683.53;;;9.53;81.25
2188;BME280;1100;52.014;8.540;2022-10-31T06:31:07;100682.38;;;9.51;81.21
2188;BME280;1100;52.014;8.540;2022-10-31T06:33:34;100678.81;;;9.50;81.29
2188;BME280;1100;52.014;8.540;2022-10-31T06:35:59;100678.81;;;9.50;81.02
2188;BME280;1100;52.014;8.540;2022-10-31T06:38:25;100688.69;;;9.51;81.32
2188;BME280;1100;52.014;8.540;2022-10-31T06:40:51;100689.50;;;9.52;81.17
2188;BME280;1100;52.014;8.540;2022-10-31T06:43:16;100683.94;;;9.52;81.23
2188;BME280;1100;52.014;8.540;2022-10-31T06:45:42;100685.50;;;9.53;81.11
2188;BME280;1100;52.014;8.540;2022-10-31T06:48:07;100688.28;;;9.53;81.07
2188;BME280;1100;52.014;8.540;2022-10-31T06:50:33;100691.84;;;9.53;81.22
2188;BME280;1100;52.014;8.540;2022-10-31T06:52:58;100690.66;;;9.54;81.34
2188;BME280;1100;52.014;8.540;2022-10-31T06:55:25;100697.31;;;9.60;81.46
2188;BME280;1100;52.014;8.540;2022-10-31T06:57:51;100702.00;;;9.64;81.35
2188;BME280;1100;52.014;8.540;2022-10-31T07:00:17;100705.53;;;9.68;81.45
2188;BME280;1100;52.014;8.540;2022-10-31T07:02:42;100707.50;;;9.71;81.51
2188;BME280;1100;52.014;8.540;2022-10-31T07:05:07;100718.53;;;9.75;81.44
2188;BME280;1100;52.014;8.540;2022-10-31T07:07:33;100714.88;;;9.81;81.58
2188;BME280;1100;52.014;8.540;2022-10-31T07:09:58;100716.81;;;9.84;81.52
2188;BME280;1100;52.014;8.540;2022-10-31T07:12:23;100717.09;;;9.90;81.88
2188;BME280;1100;52.014;8.540;2022-10-31T07:14:49;100715.44;;;9.96;81.46
2188;BME280;1100;52.014;8.540;2022-10-31T07:17:14;100723.69;;;10.04;81.40
2188;BME280;1100;52.014;8.540;2022-10-31T07:19:40;100712.50;;;10.07;81.40
2188;BME280;1100;52.014;8.540;2022-10-31T07:22:06;100708.81;;;10.14;81.52
2188;BME280;1100;52.014;8.540;2022-10-31T07:24:31;100714.25;;;10.21;81.56
2188;BME280;1100;52.014;8.540;2022-10-31T07:26:57;100706.59;;;10.29;81.65
2188;BME280;1100;52.014;8.540;2022-10-31T07:29:22;100712.06;;;10.37;81.61
2188;BME280;1100;52.014;8.540;2022-10-31T07:31:47;100703.22;;;10.42;81.65
2188;BME280;1100;52.014;8.540;2022-10-31T07:34:12;100707.09;;;10.48;81.47
2188;BME280;1100;52.014;8.540;2022-10-31T07:36:38;100704.97;;;10.56;81.43
2188;BME280;1100;52.014;8.540;2022-10-31T07:39:03;100706.06;;;10.62;81.47
2188;BME280;1100;52.014;8.540;2022-10-31T07:41:28;100699.97;;;10.71;81.36
2188;BME280;1100;52.014;8.540;2022-10-31T07:43:54;100697.06;;;10.78;81.38
2188;BME280;1100;52.014;8.540;2022-10-31T07:46:19;100700.78;;;10.92;81.41
2188;BME280;1100;52.014;8.540;2022-10-31T07:48:44;100704.13;;;11.03;81.43
2188;BME280;1100;52.014;8.540;2022-10-31T07:51:10;100704.72;;;11.15;81.31
2188;BME280;1100;52.014;8.540;2022-10-31T07:53:35;100708.06;;;11.26;81.24
2188;BME280;1100;52.014;8.540;2022-10-31T07:56:03;100708.63;;;11.38;81.42
2188;BME280;1100;52.014;8.540;2022-10-31T07:58:28;100705.59;;;11.49;81.22
2188;BME280;1100;52.014;8.540;2022-10-31T08:00:54;100712.16;;;11.58;81.15
2188;BME280;1100;52.014;8.540;2022-10-31T08:03:19;100709.22;;;11.66;80.87
2188;BME280;1100;52.014;8.540;2022-10-31T08:05:45;100706.34;;;11.69;80.99
2188;BME280;1100;52.014;8.540;2022-10-31T08:08:12;100711.50;;;11.71;80.97
2188;BME280;1100;52.014;8.540;2022-10-31T08:10:38;100704.69;;;11.72;81.12
2188;BME280;1100;52.014;8.540;2022-10-31T08:13:08;100709.06;;;11.73;81.08
2188;BME280;1100;52.014;8.540;2022-10-31T08:15:34;100708.53;;;11.78;81.17
2188;BME280;1100;52.014;8.540;2022-10-31T08:18:03;100708.81;;;11.84;81.24
2188;BME280;1100;52.014;8.540;2022-10-31T08:20:29;100714.28;;;11.88;81.20
2188;BME280;1100;52.014;8.540;2022-10-31T08:22:59;100715.00;;;11.92;81.19
2188;BME280;1100;52.014;8.540;2022-10-31T08:25:30;100713.78;;;11.93;81.12
2188;BME280;1100;52.014;8.540;2022-10-31T08:27:59;100715.78;;;11.92;81.04
2188;BME280;1100;52.014;8.540;2022-10-31T08:30:26;100706.22;;;11.93;80.96
2188;BME280;1100;52.014;8.540;2022-10-31T08:33:02;100702.56;;;11.96;81.19
2188;BME280;1100;52.014;8.540;2022-10-31T08:35:29;100703.00;;;11.95;81.10
2188;BME280;1100;52.014;8.540;2022-10-31T08:37:55;100701.41;;;11.94;81.09
2188;BME280;1100;52.014;8.540;2022-10-31T08:40:22;100691.50;;;11.93;80.88
2188;BME280;1100;52.014;8.540;2022-10-31T08:42:47;100700.28;;;11.91;81.05
2188;BME280;1100;52.014;8.540;2022-10-31T08:45:19;100693.59;;;11.89;80.86
2188;BME280;1100;52.014;8.540;2022-10-31T08:47:45;100689.31;;;11.84;80.94
2188;BME280;1100;52.014;8.540;2022-10-31T08:50:10;100699.31;;;11.81;80.69
2188;BME280;1100;52.014;8.540;2022-10-31T08:52:35;100695.84;;;11.77;80.90
2188;BME280;1100;52.014;8.540;2022-10-31T08:55:00;100689.47;;;11.77;81.18
2188;BME280;1100;52.014;8.540;2022-10-31T08:57:26;100678.34;;;11.77;81.06
2188;BME280;1100;52.014;8.540;2022-10-31T08:59:51;100676.25;;;11.81;81.09
2188;BME280;1100;52.014;8.540;2022-10-31T09:02:17;100678.19;;;11.84;81.34
2188;BME280;1100;52.014;8.540;2022-10-31T09:04:42;100670.88;;;11.90;81.14
2188;BME280;1100;52.014;8.540;2022-10-31T09:07:07;100684.19;;;11.99;81.33
2188;BME280;1100;52.014;8.540;2022-10-31T09:09:32;100672.19;;;12.02;81.07
2188;BME280;1100;52.014;8.540;2022-10-31T09:11:58;100672.47;;;12.08;81.13
2188;BME280;1100;52.014;8.540;2022-10-31T09:14:23;100671.94;;;12.13;81.15
2188;BME280;1100;52.014;8.540;2022-10-31T09:16:50;100668.19;;;12.20;81.34
2188;BME280;1100;52.014;8.540;2022-10-31T09:19:16;100669.16;;;12.30;81.21
2188;BME280;1100;52.014;8.540;2022-10-31T09:21:41;100659.81;;;12.37;81.33
2188;BME280;1100;52.014;8.540;2022-10-31T09:24:06;100670.00;;;12.43;81.39
2188;BME280;1100;52.014;8.540;2022-10-31T09:26:33;100657.44;;;12.52;81.25
2188;BME280;1100;52.014;8.540;2022-10-31T09:29:01;100653.66;;;12.58;81.29
2188;BME280;1100;52.014;8.540;2022-10-31T09:31:27;100657.84;;;12.67;81.34
2188;BME280;1100;52.014;8.540;2022-10-31T09:33:53;100656.09;;;12.73;81.37
2188;BME280;1100;52.014;8.540;2022-10-31T09:36:21;100657.09;;;12.79;81.28
2188;BME280;1100;52.014;8.540;2022-10-31T09:38:46;100655.00;;;12.83;81.22
2188;BME280;1100;52.014;8.540;2022-10-31T09:44:01;100658.63;;;12.97;81.28
2188;BME280;1100;52.014;8.540;2022-10-31T09:46:53;100658.41;;;13.04;81.21
2188;BME280;1100;52.014;8.540;2022-10-31T09:49:34;100653.84;;;13.11;81.37
2188;BME280;1100;52.014;8.540;2022-10-31T09:52:03;100661.31;;;13.14;81.27
2188;BME280;1100;52.014;8.540;2022-10-31T09:54:54;100658.31;;;13.21;81.19
2188;BME280;1100;52.014;8.540;2022-10-31T09:57:28;100674.44;;;13.30;80.88
2188;BME280;1100;52.014;8.540;2022-10-31T09:59:55;100672.66;;;13.36;81.24
2188;BME280;1100;52.014;8.540;2022-10-31T10:02:36;100665.28;;;13.42;81.04
2188;BME280;1100;52.014;8.540;2022-10-31T10:05:04;100668.31;;;13.48;81.12
2188;BME280;1100;52.014;8.540;2022-10-31T10:10:14;100664.88;;;13.57;81.06
2188;BME280;1100;52.014;8.540;2022-10-31T10:13:05;100666.66;;;13.64;81.02
2188;BME280;1100;52.014;8.540;2022-10-31T10:15:49;100660.19;;;13.67;81.00
2188;BME280;1100;52.014;8.540;2022-10-31T10:23:58;100661.19;;;13.99;81.01
2188;BME280;1100;52.014;8.540;2022-10-31T10:26:46;100665.97;;;14.12;80.92
2188;BME280;1100;52.014;8.540;2022-10-31T10:29:31;100650.72;;;14.26;81.15
2188;BME280;1100;52.014;8.540;2022-10-31T10:32:00;100654.25;;;14.39;81.00
2188;BME280;1100;52.014;8.540;2022-10-31T10:34:31;100652.56;;;14.42;80.56
2188;BME280;1100;52.014;8.540;2022-10-31T10:37:08;100645.16;;;14.48;80.78
2188;BME280;1100;52.014;8.540;2022-10-31T10:39:46;100641.78;;;14.53;80.89
2188;BME280;1100;52.014;8.540;2022-10-31T10:42:15;100631.25;;;14.57;80.84
2188;BME280;1100;52.014;8.540;2022-10-31T10:45:00;100635.56;;;14.72;80.66
2188;BME280;1100;52.014;8.540;2022-10-31T10:47:56;100628.03;;;14.81;80.82
2188;BME280;1100;52.014;8.540;2022-10-31T10:50:33;100627.78;;;14.89;80.69
2188;BME280;1100;52.014;8.540;2022-10-31T10:55:50;100627.09;;;15.07;80.79
2188;BME280;1100;52.014;8.540;2022-10-31T10:58:19;100614.88;;;15.14;80.72
2188;BME280;1100;52.014;8.540;2022-10-31T11:00:45;100598.09;;;15.23;80.60
2188;BME280;1100;52.014;8.540;2022-10-31T11:03:11;100598.44;;;15.35;80.70
2188;BME280;1100;52.014;8.540;2022-10-31T11:05:51;100602.56;;;15.52;80.51
2188;BME280;1100;52.014;8.540;2022-10-31T11:08:28;100587.78;;;15.61;80.46
2188;BME280;1100;52.014;8.540;2022-10-31T11:13:43;100584.28;;;15.79;80.31
2188;BME280;1100;52.014;8.540;2022-10-31T11:16:13;100586.44;;;15.85;80.23
2188;BME280;1100;52.014;8.540;2022-10-31T11:18:42;100576.97;;;15.82;80.32
2188;BME280;1100;52.014;8.540;2022-10-31T11:21:20;100581.63;;;15.85;80.37
2188;BME280;1100;52.014;8.540;2022-10-31T11:23:46;100581.16;;;15.87;80.56
2188;BME280;1100;52.014;8.540;2022-10-31T11:26:21;100579.63;;;15.95;80.58
2188;BME280;1100;52.014;8.540;2022-10-31T11:28:56;100579.34;;;16.02;80.41
2188;BME280;1100;52.014;8.540;2022-10-31T11:31:23;100574.84;;;16.05;80.33
2188;BME280;1100;52.014;8.540;2022-10-31T11:33:57;100564.88;;;16.04;80.05
2188;BME280;1100;52.014;8.540;2022-10-31T11:36:30;100566.72;;;15.98;79.61
2188;BME280;1100;52.014;8.540;2022-10-31T11:38:58;100556.88;;;15.93;80.06
2188;BME280;1100;52.014;8.540;2022-10-31T11:43:53;100556.56;;;15.91;80.21
2188;BME280;1100;52.014;8.540;2022-10-31T11:46:22;100556.72;;;15.87;80.12
2188;BME280;1100;52.014;8.540;2022-10-31T11:48:51;100556.53;;;15.81;79.95
2188;BME280;1100;52.014;8.540;2022-10-31T11:51:26;100548.31;;;15.78;79.75
2188;BME280;1100;52.014;8.540;2022-10-31T11:53:56;100542.53;;;15.72;79.95
2188;BME280;1100;52.014;8.540;2022-10-31T11:56:22;100546.56;;;15.71;80.13
2188;BME280;1100;52.014;8.540;2022-10-31T11:59:14;100532.41;;;15.65;80.01
2188;BME280;1100;52.014;8.540;2022-10-31T12:01:46;100535.38;;;15.71;80.25
2188;BME280;1100;52.014;8.540;2022-10-31T12:04:13;100532.88;;;15.73;80.08
2188;BME280;1100;52.014;8.540;2022-10-31T12:06:40;100520.44;;;15.74;80.04
2188;BME280;1100;52.014;8.540;2022-10-31T12:23:15;100498.81;;;15.93;79.97
2188;BME280;1100;52.014;8.540;2022-10-31T12:25:50;100510.84;;;16.03;80.13
2188;BME280;1100;52.014;8.540;2022-10-31T12:37:08;100478.41;;;16.21;79.80
2188;BME280;1100;52.014;8.540;2022-10-31T12:47:51;100462.69;;;16.24;80.13
2188;BME280;1100;52.014;8.540;2022-10-31T12:56:16;100432.91;;;16.26;79.61
2188;BME280;1100;52.014;8.540;2022-10-31T12:58:56;100433.84;;;16.23;79.75
2188;BME280;1100;52.014;8.540;2022-10-31T13:01:37;100420.59;;;16.24;79.71
2188;BME280;1100;52.014;8.540;2022-10-31T13:06:36;100416.09;;;16.17;79.83
2188;BME280;1100;52.014;8.540;2022-10-31T13:09:10;100427.31;;;16.17;79.72
2188;BME280;1100;52.014;8.540;2022-10-31T13:11:41;100426.06;;;16.18;79.72
2188;BME280;1100;52.014;8.540;2022-10-31T13:16:50;100409.38;;;16.24;79.72
2188;BME280;1100;52.014;8.540;2022-10-31T13:19:23;100404.06;;;16.26;79.77
2188;BME280;1100;52.014;8.540;2022-10-31T13:21:59;100403.31;;;16.25;79.75
2188;BME280;1100;52.014;8.540;2022-10-31T13:27:56;100390.97;;;16.32;79.70
2188;BME280;1100;52.014;8.540;2022-10-31T13:30:24;100387.22;;;16.35;79.74
2188;BME280;1100;52.014;8.540;2022-10-31T13:35:35;100382.22;;;16.39;79.58
2188;BME280;1100;52.014;8.540;2022-10-31T13:38:29;100376.91;;;16.41;79.62
2188;BME280;1100;52.014;8.540;2022-10-31T13:43:41;100368.31;;;16.45;79.58
2188;BME280;1100;52.014;8.540;2022-10-31T13:46:35;100367.38;;;16.48;79.56
2188;BME280;1100;52.014;8.540;2022-10-31T13:49:01;100375.91;;;16.54;79.68
2188;BME280;1100;52.014;8.540;2022-10-31T13:51:31;100367.03;;;16.55;79.40
2188;BME280;1100;52.014;8.540;2022-10-31T13:54:01;100354.84;;;16.59;79.37
2188;BME280;1100;52.014;8.540;2022-10-31T13:56:33;100353.00;;;16.55;79.50
2188;BME280;1100;52.014;8.540;2022-10-31T13:59:04;100358.59;;;16.55;79.40
2188;BME280;1100;52.014;8.540;2022-10-31T14:01:32;100350.66;;;16.54;79.50
2188;BME280;1100;52.014;8.540;2022-10-31T14:04:04;100349.59;;;16.51;79.28
2188;BME280;1100;52.014;8.540;2022-10-31T14:12:36;100335.59;;;16.42;79.41
2188;BME280;1100;52.014;8.540;2022-10-31T14:17:45;100329.41;;;16.38;79.32
2188;BME280;1100;52.014;8.540;2022-10-31T14:22:39;100313.22;;;16.33;79.42
2188;BME280;1100;52.014;8.540;2022-10-31T14:27:52;100313.25;;;16.23;79.53
2188;BME280;1100;52.014;8.540;2022-10-31T14:30:23;100308.59;;;16.20;79.62
2188;BME280;1100;52.014;8.540;2022-10-31T14:32:55;100299.88;;;16.18;79.47
2188;BME280;1100;52.014;8.540;2022-10-31T14:35:49;100299.25;;;16.14;79.56
2188;BME280;1100;52.014;8.540;2022-10-31T14:41:28;100285.13;;;16.08;79.73
2188;BME280;1100;52.014;8.540;2022-10-31T14:46:54;100281.88;;;16.00;79.70
2188;BME280;1100;52.014;8.540;2022-10-31T14:51:48;100277.34;;;15.93;79.59
2188;BME280;1100;52.014;8.540;2022-10-31T14:54:46;100277.34;;;15.93;79.84
2188;BME280;1100;52.014;8.540;2022-10-31T14:57:18;100270.66;;;15.91;79.67
2188;BME280;1100;52.014;8.540;2022-10-31T14:59:49;100270.50;;;15.85;79.75
2188;BME280;1100;52.014;8.540;2022-10-31T15:05:26;100263.22;;;15.78;79.75
2188;BME280;1100;52.014;8.540;2022-10-31T15:07:54;100272.56;;;15.75;79.92
2188;BME280;1100;52.014;8.540;2022-10-31T15:10:30;100260.59;;;15.75;80.09
2188;BME280;1100;52.014;8.540;2022-10-31T15:13:09;100263.41;;;15.75;80.03
2188;BME280;1100;52.014;8.540;2022-10-31T15:15:36;100256.69;;;15.72;80.02
2188;BME280;1100;52.014;8.540;2022-10-31T15:18:04;100252.81;;;15.69;79.91
2188;BME280;1100;52.014;8.540;2022-10-31T15:20:36;100244.88;;;15.68;80.03
2188;BME280;1100;52.014;8.540;2022-10-31T15:23:03;100237.72;;;15.67;79.99
2188;BME280;1100;52.014;8.540;2022-10-31T15:25:33;100233.66;;;15.68;79.92